sensor_id;sensor_type;location;lat;lon;timestamp;pressure;altitude;pressure_sealevel;temperature;humidity
48796;BME280;34607;48.520;-1.330;2023-03-22T07:59:53;99360.22;;;11.16;100.00
48796;BME280;34607;48.520;-1.330;2023-03-22T08:02:23;99355.91;;;11.19;100.00
48796;BME280;34607;48.520;-1.330;2023-03-22T08:04:53;99357.59;;;11.19;100.00
48796;BME280;34607;48.520;-1.330;2023-03-22T08:07:33;99350.72;;;11.15;100.00
48796;BME280;34607;48.520;-1.330;2023-03-22T08:10:00;99353.31;;;11.13;100.00
48796;BME280;34607;48.520;-1.330;2023-03-22T08:12:28;99349.81;;;11.22;100.00
48796;BME280;34607;48.520;-1.330;2023-03-22T08:15:11;99336.88;;;11.19;100.00
48796;BME280;34607;48.520;-1.330;2023-03-22T08:17:40;99330.81;;;11.24;100.00
48796;BME280;34607;48.520;-1.330;2023-03-22T08:20:14;99336.88;;;11.28;100.00
48796;BME280;34607;48.520;-1.330;2023-03-22T08:22:48;99320.41;;;11.32;100.00
48796;BME280;34607;48.520;-1.330;2023-03-22T08:25:38;99333.38;;;11.34;100.00
48796;BME280;34607;48.520;-1.330;2023-03-22T08:28:08;99328.19;;;11.34;100.00
48796;BME280;34607;48.520;-1.330;2023-03-22T08:30:37;99325.59;;;11.34;100.00
48796;BME280;34607;48.520;-1.330;2023-03-22T08:33:04;99329.06;;;11.34;100.00
48796;BME280;34607;48.520;-1.330;2023-03-22T08:35:32;99335.13;;;11.38;100.00
48796;BME280;34607;48.520;-1.330;2023-03-22T08:38:00;99322.09;;;11.47;100.00
48796;BME280;34607;48.520;-1.330;2023-03-22T08:40:38;99327.28;;;11.46;100.00
48796;BME280;34607;48.520;-1.330;2023-03-22T08:43:05;99324.69;;;11.49;100.00
48796;BME280;34607;48.520;-1.330;2023-03-22T08:45:33;99331.59;;;11.53;100.00
48796;BME280;34607;48.520;-1.330;2023-03-22T08:48:08;99335.13;;;11.35;100.00
48796;BME280;34607;48.520;-1.330;2023-03-22T08:50:57;99320.38;;;11.48;100.00
48796;BME280;34607;48.520;-1.330;2023-03-22T08:53:35;99326.44;;;11.48;100.00
48796;BME280;34607;48.520;-1.330;2023-03-22T08:56:31;99329.84;;;11.55;100.00
48796;BME280;34607;48.520;-1.330;2023-03-22T08:59:13;99318.59;;;11.59;100.00
48796;BME280;34607;48.520;-1.330;2023-03-22T09:02:07;99324.63;;;11.64;100.00
48796;BME280;34607;48.520;-1.330;2023-03-22T09:04:36;99327.16;;;11.72;100.00
48796;BME280;34607;48.520;-1.330;2023-03-22T09:07:03;99324.56;;;11.75;100.00
48796;BME280;34607;48.520;-1.330;2023-03-22T09:09:31;99304.72;;;11.72;100.00
48796;BME280;34607;48.520;-1.330;2023-03-22T09:11:58;99318.47;;;11.80;100.00
48796;BME280;34607;48.520;-1.330;2023-03-22T09:14:25;99325.41;;;11.85;100.00
48796;BME280;34607;48.520;-1.330;2023-03-22T09:16:53;99325.41;;;11.85;100.00
48796;BME280;34607;48.520;-1.330;2023-03-22T09:19:20;99331.41;;;11.90;100.00
48796;BME280;34607;48.520;-1.330;2023-03-22T09:21:49;99334.03;;;11.93;100.00
48796;BME280;34607;48.520;-1.330;2023-03-22T09:24:27;99328.78;;;11.99;100.00
48796;BME280;34607;48.520;-1.330;2023-03-22T09:26:58;99321.84;;;12.03;100.00
48796;BME280;34607;48.520;-1.330;2023-03-22T09:29:26;99328.78;;;12.04;100.00
48796;BME280;34607;48.520;-1.330;2023-03-22T09:31:53;99327.03;;;12.01;100.00
48796;BME280;34607;48.520;-1.330;2023-03-22T09:34:24;99335.63;;;12.15;100.00
48796;BME280;34607;48.520;-1.330;2023-03-22T09:36:55;99338.16;;;12.22;100.00
48796;BME280;34607;48.520;-1.330;2023-03-22T09:39:25;99322.66;;;12.15;100.00
48796;BME280;34607;48.520;-1.330;2023-03-22T09:41:56;99325.25;;;12.15;100.00
48796;BME280;34607;48.520;-1.330;2023-03-22T09:44:27;99333.88;;;12.17;100.00
48796;BME280;34607;48.520;-1.330;2023-03-22T09:46:56;99322.63;;;12.20;100.00
48796;BME280;34607;48.520;-1.330;2023-03-22T09:49:29;99321.69;;;12.29;100.00
48796;BME280;34607;48.520;-1.330;2023-03-22T09:52:01;99330.31;;;12.34;100.00
48796;BME280;34607;48.520;-1.330;2023-03-22T09:54:32;99325.16;;;12.25;100.00
48796;BME280;34607;48.520;-1.330;2023-03-22T09:57:03;99334.56;;;12.43;100.00
48796;BME280;34607;48.520;-1.330;2023-03-22T09:59:35;99333.75;;;12.34;100.00
48796;BME280;34607;48.520;-1.330;2023-03-22T10:02:20;99319.84;;;12.42;100.00
48796;BME280;34607;48.520;-1.330;2023-03-22T10:04:58;99335.44;;;12.40;100.00
48796;BME280;34607;48.520;-1.330;2023-03-22T10:07:36;99317.25;;;12.43;100.00
48796;BME280;34607;48.520;-1.330;2023-03-22T10:10:08;99310.28;;;12.48;100.00
48796;BME280;34607;48.520;-1.330;2023-03-22T10:12:45;99308.47;;;12.58;100.00
48796;BME280;34607;48.520;-1.330;2023-03-22T10:15:18;99330.88;;;12.71;100.00
48796;BME280;34607;48.520;-1.330;2023-03-22T10:17:50;99326.56;;;12.67;100.00
48796;BME280;34607;48.520;-1.330;2023-03-22T10:20:26;99320.56;;;12.59;100.00
48796;BME280;34607;48.520;-1.330;2023-03-22T10:22:59;99317.19;;;12.51;100.00
48796;BME280;34607;48.520;-1.330;2023-03-22T10:25:32;99321.47;;;12.57;100.00
48796;BME280;34607;48.520;-1.330;2023-03-22T10:28:05;99323.22;;;12.56;100.00
48796;BME280;34607;48.520;-1.330;2023-03-22T10:30:37;99317.16;;;12.54;100.00
48796;BME280;34607;48.520;-1.330;2023-03-22T10:33:12;99310.31;;;12.42;100.00
48796;BME280;34607;48.520;-1.330;2023-03-22T10:35:40;99313.84;;;12.33;100.00
48796;BME280;34607;48.520;-1.330;2023-03-22T10:38:17;99307.81;;;12.33;100.00
48796;BME280;34607;48.520;-1.330;2023-03-22T10:40:48;99306.88;;;12.40;100.00
48796;BME280;34607;48.520;-1.330;2023-03-22T10:43:20;99309.47;;;12.40;100.00
48796;BME280;34607;48.520;-1.330;2023-03-22T10:45:51;99304.34;;;12.32;100.00
48796;BME280;34607;48.520;-1.330;2023-03-22T10:48:24;99281.03;;;12.28;100.00
48796;BME280;34607;48.520;-1.330;2023-03-22T10:50:52;99307.91;;;12.22;100.00
48796;BME280;34607;48.520;-1.330;2023-03-22T10:53:27;99280.31;;;12.07;100.00
48796;BME280;34607;48.520;-1.330;2023-03-22T10:55:56;99299.22;;;12.22;100.00
48796;BME280;34607;48.520;-1.330;2023-03-22T10:58:29;99298.38;;;12.23;100.00
48796;BME280;34607;48.520;-1.330;2023-03-22T11:00:58;99278.53;;;12.12;100.00
48796;BME280;34607;48.520;-1.330;2023-03-22T11:03:29;99275.09;;;12.12;100.00
48796;BME280;34607;48.520;-1.330;2023-03-22T11:05:58;99288.00;;;12.16;100.00
48796;BME280;34607;48.520;-1.330;2023-03-22T11:08:26;99276.78;;;12.14;100.00
48796;BME280;34607;48.520;-1.330;2023-03-22T11:10:53;99296.78;;;12.05;100.00
48796;BME280;34607;48.520;-1.330;2023-03-22T11:13:25;99286.34;;;12.06;100.00
48796;BME280;34607;48.520;-1.330;2023-03-22T11:15:55;99289.84;;;12.04;100.00
48796;BME280;34607;48.520;-1.330;2023-03-22T11:18:28;99301.03;;;12.12;100.00
48796;BME280;34607;48.520;-1.330;2023-03-22T11:20:58;99290.69;;;12.09;100.00
48796;BME280;34607;48.520;-1.330;2023-03-22T11:23:31;99294.09;;;12.15;100.00
48796;BME280;34607;48.520;-1.330;2023-03-22T11:26:05;99300.13;;;12.17;100.00
48796;BME280;34607;48.520;-1.330;2023-03-22T11:28:36;99303.63;;;12.13;100.00
48796;BME280;34607;48.520;-1.330;2023-03-22T11:31:12;99297.56;;;12.11;100.00
48796;BME280;34607;48.520;-1.330;2023-03-22T11:33:50;99300.16;;;12.13;100.00
48796;BME280;34607;48.520;-1.330;2023-03-22T11:36:20;99294.13;;;12.12;100.00
48796;BME280;34607;48.520;-1.330;2023-03-22T11:38:55;99301.09;;;12.03;100.00
48796;BME280;34607;48.520;-1.330;2023-03-22T11:41:25;99291.53;;;12.09;100.00
48796;BME280;34607;48.520;-1.330;2023-03-22T11:43:54;99277.75;;;12.03;100.00
48796;BME280;34607;48.520;-1.330;2023-03-22T11:46:23;99305.44;;;12.01;100.00
48796;BME280;34607;48.520;-1.330;2023-03-22T11:48:51;99289.81;;;12.10;100.00
48796;BME280;34607;48.520;-1.330;2023-03-22T11:51:27;99281.16;;;12.09;100.00
48796;BME280;34607;48.520;-1.330;2023-03-22T11:54:03;99287.16;;;12.19;100.00
48796;BME280;34607;48.520;-1.330;2023-03-22T11:56:32;99277.69;;;12.15;100.00
48796;BME280;34607;48.520;-1.330;2023-03-22T11:59:04;99278.44;;;12.25;100.00
48796;BME280;34607;48.520;-1.330;2023-03-22T12:01:37;99273.28;;;12.22;100.00
48796;BME280;34607;48.520;-1.330;2023-03-22T12:04:10;99285.47;;;12.10;100.00
48796;BME280;34607;48.520;-1.330;2023-03-22T12:06:40;99267.44;;;11.93;100.00
48796;BME280;34607;48.520;-1.330;2023-03-22T12:09:20;99277.72;;;12.06;100.00
48796;BME280;34607;48.520;-1.330;2023-03-22T12:11:52;99294.09;;;12.15;100.00
48796;BME280;34607;48.520;-1.330;2023-03-22T12:14:24;99284.66;;;12.08;100.00
48796;BME280;34607;48.520;-1.330;2023-03-22T12:16:56;99282.88;;;12.13;100.00
48796;BME280;34607;48.520;-1.330;2023-03-22T12:19:37;99275.16;;;12.01;100.00
48796;BME280;34607;48.520;-1.330;2023-03-22T12:22:10;99232.06;;;11.77;100.00
48796;BME280;34607;48.520;-1.330;2023-03-22T12:24:40;99277.63;;;12.18;100.00
48796;BME280;34607;48.520;-1.330;2023-03-22T12:27:14;99272.41;;;12.24;100.00
48796;BME280;34607;48.520;-1.330;2023-03-22T12:29:45;99259.44;;;12.20;100.00
48796;BME280;34607;48.520;-1.330;2023-03-22T12:32:18;99272.38;;;12.29;100.00
48796;BME280;34607;48.520;-1.330;2023-03-22T12:34:49;99277.56;;;12.29;100.00
48796;BME280;34607;48.520;-1.330;2023-03-22T12:37:19;99268.13;;;12.20;100.00
48796;BME280;34607;48.520;-1.330;2023-03-22T12:39:51;99256.09;;;12.08;100.00
48796;BME280;34607;48.520;-1.330;2023-03-22T12:42:24;99264.69;;;12.15;100.00
48796;BME280;34607;48.520;-1.330;2023-03-22T12:44:56;99264.72;;;12.13;100.00
48796;BME280;34607;48.520;-1.330;2023-03-22T12:47:27;99257.78;;;12.15;100.00
48796;BME280;34607;48.520;-1.330;2023-03-22T12:49:59;99266.41;;;12.17;100.00
48796;BME280;34607;48.520;-1.330;2023-03-22T12:52:32;99262.97;;;12.15;100.00
48796;BME280;34607;48.520;-1.330;2023-03-22T12:55:03;99254.38;;;12.07;100.00
48796;BME280;34607;48.520;-1.330;2023-03-22T12:57:31;99256.06;;;12.11;100.00
48796;BME280;34607;48.520;-1.330;2023-03-22T13:00:03;99258.66;;;12.11;100.00
48796;BME280;34607;48.520;-1.330;2023-03-22T13:02:35;99254.28;;;12.16;100.00
48796;BME280;34607;48.520;-1.330;2023-03-22T13:05:03;99255.16;;;12.20;100.00
48796;BME280;34607;48.520;-1.330;2023-03-22T13:07:49;99243.16;;;12.01;100.00
48796;BME280;34607;48.520;-1.330;2023-03-22T13:13:47;99250.00;;;12.14;100.00
48796;BME280;34607;48.520;-1.330;2023-03-22T13:16:18;99235.28;;;12.13;100.00
48796;BME280;34607;48.520;-1.330;2023-03-22T13:19:00;99231.72;;;12.25;100.00
48796;BME280;34607;48.520;-1.330;2023-03-22T13:21:29;99228.28;;;12.24;100.00
48796;BME280;34607;48.520;-1.330;2023-03-22T13:24:00;99198.94;;;12.14;100.00
48796;BME280;34607;48.520;-1.330;2023-03-22T13:26:37;99220.47;;;12.29;100.00
48796;BME280;34607;48.520;-1.330;2023-03-22T13:29:15;99205.88;;;12.15;100.00
48796;BME280;34607;48.520;-1.330;2023-03-22T13:31:52;99221.44;;;12.17;100.00
48796;BME280;34607;48.520;-1.330;2023-03-22T13:34:29;99216.19;;;12.22;100.00
48796;BME280;34607;48.520;-1.330;2023-03-22T13:36:58;99224.00;;;12.20;100.00
48796;BME280;34607;48.520;-1.330;2023-03-22T13:39:31;99203.28;;;12.15;100.00
48796;BME280;34607;48.520;-1.330;2023-03-22T13:42:07;99198.94;;;12.14;100.00
48796;BME280;34607;48.520;-1.330;2023-03-22T13:44:40;99213.63;;;12.20;100.00
48796;BME280;34607;48.520;-1.330;2023-03-22T13:47:29;99210.16;;;12.20;100.00
48796;BME280;34607;48.520;-1.330;2023-03-22T13:49:59;99217.06;;;12.21;100.00
48796;BME280;34607;48.520;-1.330;2023-03-22T13:52:33;99216.22;;;12.18;100.00
48796;BME280;34607;48.520;-1.330;2023-03-22T13:55:02;99203.28;;;12.11;100.00
48796;BME280;34607;48.520;-1.330;2023-03-22T13:57:55;99202.38;;;12.18;100.00
48796;BME280;34607;48.520;-1.330;2023-03-22T14:00:39;99190.28;;;12.15;100.00
48796;BME280;34607;48.520;-1.330;2023-03-22T14:03:16;99189.47;;;12.12;100.00
48796;BME280;34607;48.520;-1.330;2023-03-22T14:05:47;99198.09;;;12.15;100.00
48796;BME280;34607;48.520;-1.330;2023-03-22T14:08:24;99173.06;;;12.07;100.00
48796;BME280;34607;48.520;-1.330;2023-03-22T14:10:57;99191.09;;;12.22;100.00
48796;BME280;34607;48.520;-1.330;2023-03-22T14:13:29;99188.66;;;12.05;100.00
48796;BME280;34607;48.520;-1.330;2023-03-22T14:16:03;99190.31;;;12.12;100.00
48796;BME280;34607;48.520;-1.330;2023-03-22T14:18:33;99185.03;;;12.22;100.00
48796;BME280;34607;48.520;-1.330;2023-03-22T14:21:05;99180.66;;;12.27;100.00
48796;BME280;34607;48.520;-1.330;2023-03-22T14:23:35;99176.28;;;12.32;100.00
48796;BME280;34607;48.520;-1.330;2023-03-22T14:26:06;99166.03;;;12.16;100.00
48796;BME280;34607;48.520;-1.330;2023-03-22T14:28:38;99177.28;;;12.20;100.00
48796;BME280;34607;48.520;-1.330;2023-03-22T14:31:13;99182.44;;;12.22;100.00
48796;BME280;34607;48.520;-1.330;2023-03-22T14:33:42;99180.72;;;12.22;100.00
48796;BME280;34607;48.520;-1.330;2023-03-22T14:36:12;99176.34;;;12.26;100.00
48796;BME280;34607;48.520;-1.330;2023-03-22T14:38:43;99180.72;;;12.21;100.00
48796;BME280;34607;48.520;-1.330;2023-03-22T14:41:13;99175.56;;;12.16;100.00
48796;BME280;34607;48.520;-1.330;2023-03-22T14:43:42;99176.44;;;12.16;100.00
48796;BME280;34607;48.520;-1.330;2023-03-22T14:46:17;99159.16;;;12.17;100.00
48796;BME280;34607;48.520;-1.330;2023-03-22T14:48:49;99167.81;;;12.11;100.00
48796;BME280;34607;48.520;-1.330;2023-03-22T14:51:19;99166.19;;;12.01;100.00
48796;BME280;34607;48.520;-1.330;2023-03-22T14:53:47;99165.31;;;12.02;100.00
48796;BME280;34607;48.520;-1.330;2023-03-22T14:56:18;99160.94;;;12.10;100.00
48796;BME280;34607;48.520;-1.330;2023-03-22T14:58:48;99159.16;;;12.15;100.00
48796;BME280;34607;48.520;-1.330;2023-03-22T15:01:22;99157.53;;;12.01;100.00
48796;BME280;34607;48.520;-1.330;2023-03-22T15:03:54;99157.50;;;12.05;100.00
48796;BME280;34607;48.520;-1.330;2023-03-22T15:06:24;99150.56;;;12.09;100.00
48796;BME280;34607;48.520;-1.330;2023-03-22T15:08:52;99150.56;;;12.10;100.00
48796;BME280;34607;48.520;-1.330;2023-03-22T15:11:20;99146.28;;;12.05;100.00
48796;BME280;34607;48.520;-1.330;2023-03-22T15:13:48;99134.28;;;11.91;100.00
48796;BME280;34607;48.520;-1.330;2023-03-22T15:16:21;99144.53;;;12.05;100.00
48796;BME280;34607;48.520;-1.330;2023-03-22T15:18:50;99141.13;;;12.02;100.00
48796;BME280;34607;48.520;-1.330;2023-03-22T15:21:17;99148.81;;;12.09;100.00
48796;BME280;34607;48.520;-1.330;2023-03-22T15:23:50;99153.16;;;12.09;100.00
48796;BME280;34607;48.520;-1.330;2023-03-22T15:26:19;99141.03;;;12.09;100.00
48796;BME280;34607;48.520;-1.330;2023-03-22T15:28:52;99130.66;;;12.09;100.00
48796;BME280;34607;48.520;-1.330;2023-03-22T15:31:24;99140.16;;;12.10;100.00
48796;BME280;34607;48.520;-1.330;2023-03-22T15:33:58;99132.44;;;12.01;100.00
48796;BME280;34607;48.520;-1.330;2023-03-22T15:36:28;99118.75;;;11.85;100.00
48796;BME280;34607;48.520;-1.330;2023-03-22T15:38:59;99149.84;;;11.91;100.00
48796;BME280;34607;48.520;-1.330;2023-03-22T15:41:34;99148.09;;;11.96;100.00
48796;BME280;34607;48.520;-1.330;2023-03-22T15:44:13;99134.22;;;11.97;100.00
48796;BME280;34607;48.520;-1.330;2023-03-22T15:46:53;99130.81;;;11.91;100.00
48796;BME280;34607;48.520;-1.330;2023-03-22T15:49:27;99130.81;;;11.89;100.00
48796;BME280;34607;48.520;-1.330;2023-03-22T15:52:05;99142.84;;;12.01;100.00
48796;BME280;34607;48.520;-1.330;2023-03-22T15:54:40;99133.34;;;12.00;100.00
48796;BME280;34607;48.520;-1.330;2023-03-22T15:57:09;99141.03;;;12.08;100.00
48796;BME280;34607;48.520;-1.330;2023-03-22T15:59:59;99127.22;;;12.07;100.00
48796;BME280;34607;48.520;-1.330;2023-03-22T16:02:33;99141.16;;;11.98;100.00
48796;BME280;34607;48.520;-1.330;2023-03-22T16:05:01;99145.41;;;12.04;100.00
48796;BME280;34607;48.520;-1.330;2023-03-22T16:07:29;99153.19;;;12.03;100.00
48796;BME280;34607;48.520;-1.330;2023-03-22T16:09:57;99148.81;;;12.08;100.00
48796;BME280;34607;48.520;-1.330;2023-03-22T16:12:24;99117.81;;;11.94;100.00
48796;BME280;34607;48.520;-1.330;2023-03-22T16:14:51;99142.72;;;12.15;100.00
48796;BME280;34607;48.520;-1.330;2023-03-22T16:17:20;99128.88;;;12.13;100.00
48796;BME280;34607;48.520;-1.330;2023-03-22T16:19:49;99123.69;;;12.14;100.00
48796;BME280;34607;48.520;-1.330;2023-03-22T16:22:18;99112.50;;;12.08;100.00
48796;BME280;34607;48.520;-1.330;2023-03-22T16:24:45;99111.53;;;12.20;100.00
48796;BME280;34607;48.520;-1.330;2023-03-22T16:27:16;99121.88;;;12.21;100.00
48796;BME280;34607;48.520;-1.330;2023-03-22T16:29:45;99100.28;;;12.21;100.00
48796;BME280;34607;48.520;-1.330;2023-03-22T16:32:15;99093.44;;;12.13;100.00
48796;BME280;34607;48.520;-1.330;2023-03-22T16:34:42;99089.00;;;12.23;100.00
48796;BME280;34607;48.520;-1.330;2023-03-22T16:37:14;99057.97;;;12.12;100.00
48796;BME280;34607;48.520;-1.330;2023-03-22T16:39:42;99075.16;;;12.23;100.00
48796;BME280;34607;48.520;-1.330;2023-03-22T16:42:14;99074.31;;;12.21;100.00
48796;BME280;34607;48.520;-1.330;2023-03-22T16:44:42;99082.13;;;12.21;100.00
48796;BME280;34607;48.520;-1.330;2023-03-22T16:47:11;99079.59;;;12.11;100.00
48796;BME280;34607;48.520;-1.330;2023-03-22T16:49:39;99092.47;;;12.24;100.00
48796;BME280;34607;48.520;-1.330;2023-03-22T16:52:09;99104.50;;;12.31;100.00
48796;BME280;34607;48.520;-1.330;2023-03-22T16:54:39;99113.16;;;12.28;100.00
48796;BME280;34607;48.520;-1.330;2023-03-22T16:57:11;99101.97;;;12.22;100.00
48796;BME280;34607;48.520;-1.330;2023-03-22T16:59:38;99114.03;;;12.29;100.00
48796;BME280;34607;48.520;-1.330;2023-03-22T17:02:12;99117.50;;;12.26;100.00
48796;BME280;34607;48.520;-1.330;2023-03-22T17:04:40;99107.22;;;12.18;100.00
48796;BME280;34607;48.520;-1.330;2023-03-22T17:07:11;99089.16;;;12.08;100.00
48796;BME280;34607;48.520;-1.330;2023-03-22T17:09:41;99102.03;;;12.17;100.00
48796;BME280;34607;48.520;-1.330;2023-03-22T17:12:15;99119.38;;;12.13;100.00
48796;BME280;34607;48.520;-1.330;2023-03-22T17:14:43;99094.44;;;11.98;100.00
48796;BME280;34607;48.520;-1.330;2023-03-22T17:17:10;99085.72;;;12.04;100.00
48796;BME280;34607;48.520;-1.330;2023-03-22T17:19:37;99103.75;;;12.18;100.00
48796;BME280;34607;48.520;-1.330;2023-03-22T17:22:04;99116.69;;;12.23;100.00
48796;BME280;34607;48.520;-1.330;2023-03-22T17:24:33;99115.88;;;12.17;100.00
48796;BME280;34607;48.520;-1.330;2023-03-22T17:27:02;99115.88;;;12.17;100.00
48796;BME280;34607;48.520;-1.330;2023-03-22T17:29:30;99113.28;;;12.19;100.00
48796;BME280;34607;48.520;-1.330;2023-03-22T17:31:58;99119.28;;;12.21;100.00
48796;BME280;34607;48.520;-1.330;2023-03-22T17:34:26;99112.47;;;12.12;100.00
48796;BME280;34607;48.520;-1.330;2023-03-22T17:36:54;99113.31;;;12.14;100.00
48796;BME280;34607;48.520;-1.330;2023-03-22T17:39:21;99121.13;;;12.11;100.00
48796;BME280;34607;48.520;-1.330;2023-03-22T17:41:48;99115.97;;;12.08;100.00
48796;BME280;34607;48.520;-1.330;2023-03-22T17:44:17;99092.69;;;12.02;100.00
48796;BME280;34607;48.520;-1.330;2023-03-22T17:46:44;99095.22;;;12.07;100.00
48796;BME280;34607;48.520;-1.330;2023-03-22T17:49:11;99113.31;;;12.13;100.00
48796;BME280;34607;48.520;-1.330;2023-03-22T17:51:38;99114.22;;;12.10;100.00
48796;BME280;34607;48.520;-1.330;2023-03-22T17:54:05;99122.84;;;12.12;100.00
48796;BME280;34607;48.520;-1.330;2023-03-22T17:56:32;99091.00;;;11.98;100.00
48796;BME280;34607;48.520;-1.330;2023-03-22T17:58:59;99119.53;;;11.98;100.00
48796;BME280;34607;48.520;-1.330;2023-03-22T18:01:28;99126.44;;;11.99;100.00
48796;BME280;34607;48.520;-1.330;2023-03-22T18:03:55;99132.44;;;12.01;100.00
48796;BME280;34607;48.520;-1.330;2023-03-22T18:06:22;99122.88;;;12.06;100.00
48796;BME280;34607;48.520;-1.330;2023-03-22T18:08:49;99126.44;;;11.99;100.00
48796;BME280;34607;48.520;-1.330;2023-03-22T18:11:17;99123.91;;;11.90;100.00
48796;BME280;34607;48.520;-1.330;2023-03-22T18:13:44;99131.69;;;11.93;100.00
48796;BME280;34607;48.520;-1.330;2023-03-22T18:16:12;99137.72;;;11.93;100.00
48796;BME280;34607;48.520;-1.330;2023-03-22T18:18:41;99122.16;;;11.93;100.00
48796;BME280;34607;48.520;-1.330;2023-03-22T18:21:10;99113.56;;;11.85;100.00
48796;BME280;34607;48.520;-1.330;2023-03-22T18:23:40;99121.31;;;11.87;100.00
48796;BME280;34607;48.520;-1.330;2023-03-22T18:26:08;99119.59;;;11.86;100.00
48796;BME280;34607;48.520;-1.330;2023-03-22T18:28:38;99114.38;;;11.92;100.00
48796;BME280;34607;48.520;-1.330;2023-03-22T18:31:07;99123.03;;;11.91;100.00
48796;BME280;34607;48.520;-1.330;2023-03-22T18:33:34;99123.91;;;11.88;100.00
48796;BME280;34607;48.520;-1.330;2023-03-22T18:36:04;99129.97;;;11.92;100.00
48796;BME280;34607;48.520;-1.330;2023-03-22T18:38:32;99110.09;;;11.88;100.00
48796;BME280;34607;48.520;-1.330;2023-03-22T18:41:04;99095.44;;;11.80;100.00
48796;BME280;34607;48.520;-1.330;2023-03-22T18:43:33;99117.88;;;11.88;100.00
48796;BME280;34607;48.520;-1.330;2023-03-22T18:46:05;99121.34;;;11.84;100.00
48796;BME280;34607;48.520;-1.330;2023-03-22T18:48:33;99112.72;;;11.83;100.00
48796;BME280;34607;48.520;-1.330;2023-03-22T18:51:00;99106.69;;;11.81;100.00
48796;BME280;34607;48.520;-1.330;2023-03-22T18:53:30;99105.84;;;11.79;100.00
48796;BME280;34607;48.520;-1.330;2023-03-22T18:55:57;99114.47;;;11.81;100.00
48796;BME280;34607;48.520;-1.330;2023-03-22T18:58:25;99056.78;;;11.53;100.00
48796;BME280;34607;48.520;-1.330;2023-03-22T19:00:52;99104.94;;;11.81;100.00
48796;BME280;34607;48.520;-1.330;2023-03-22T19:03:19;99098.91;;;11.81;100.00
48796;BME280;34607;48.520;-1.330;2023-03-22T19:05:46;99097.16;;;11.83;100.00
48796;BME280;34607;48.520;-1.330;2023-03-22T19:08:13;99098.00;;;11.84;100.00
48796;BME280;34607;48.520;-1.330;2023-03-22T19:10:46;99092.78;;;11.87;100.00
48796;BME280;34607;48.520;-1.330;2023-03-22T19:13:13;99091.09;;;11.84;100.00
48796;BME280;34607;48.520;-1.330;2023-03-22T19:15:40;99088.47;;;11.86;100.00
48796;BME280;34607;48.520;-1.330;2023-03-22T19:18:07;99100.56;;;11.87;100.00
48796;BME280;34607;48.520;-1.330;2023-03-22T19:20:37;99098.00;;;11.82;100.00
48796;BME280;34607;48.520;-1.330;2023-03-22T19:23:05;99088.53;;;11.78;100.00
48796;BME280;34607;48.520;-1.330;2023-03-22T19:25:32;99106.63;;;11.86;100.00
48796;BME280;34607;48.520;-1.330;2023-03-22T19:28:01;99079.97;;;11.70;100.00
48796;BME280;34607;48.520;-1.330;2023-03-22T19:30:28;99100.66;;;11.77;100.00
48796;BME280;34607;48.520;-1.330;2023-03-22T19:32:55;99118.72;;;11.87;100.00
48796;BME280;34607;48.520;-1.330;2023-03-22T19:35:22;99133.50;;;11.77;100.00
48796;BME280;34607;48.520;-1.330;2023-03-22T19:37:49;99155.88;;;11.87;100.00
48796;BME280;34607;48.520;-1.330;2023-03-22T19:40:17;99155.97;;;11.81;100.00
48796;BME280;34607;48.520;-1.330;2023-03-22T19:42:44;99155.94;;;11.84;100.00
48796;BME280;34607;48.520;-1.330;2023-03-22T19:45:12;99155.88;;;11.87;100.00
48796;BME280;34607;48.520;-1.330;2023-03-22T19:47:40;99147.25;;;11.87;100.00
48796;BME280;34607;48.520;-1.330;2023-03-22T19:50:07;99154.19;;;11.85;100.00
48796;BME280;34607;48.520;-1.330;2023-03-22T19:52:35;99149.00;;;11.85;100.00
48796;BME280;34607;48.520;-1.330;2023-03-22T19:55:03;99147.28;;;11.80;100.00
48796;BME280;34607;48.520;-1.330;2023-03-22T19:57:30;99140.44;;;11.76;100.00
48796;BME280;34607;48.520;-1.330;2023-03-22T19:59:59;99130.88;;;11.81;100.00
48796;BME280;34607;48.520;-1.330;2023-03-22T20:02:31;99136.91;;;11.80;100.00
48796;BME280;34607;48.520;-1.330;2023-03-22T20:04:58;99128.31;;;11.75;100.00
48796;BME280;34607;48.520;-1.330;2023-03-22T20:07:25;99109.38;;;11.69;100.00
48796;BME280;34607;48.520;-1.330;2023-03-22T20:09:53;99106.72;;;11.73;100.00
48796;BME280;34607;48.520;-1.330;2023-03-22T20:12:20;99122.31;;;11.70;100.00
48796;BME280;34607;48.520;-1.330;2023-03-22T20:14:48;99122.28;;;11.73;100.00
48796;BME280;34607;48.520;-1.330;2023-03-22T20:17:15;99100.84;;;11.56;100.00
48796;BME280;34607;48.520;-1.330;2023-03-22T20:19:43;99133.56;;;11.71;100.00
48796;BME280;34607;48.520;-1.330;2023-03-22T20:22:10;99128.38;;;11.69;100.00
48796;BME280;34607;48.520;-1.330;2023-03-22T20:24:37;99143.09;;;11.67;100.00
48796;BME280;34607;48.520;-1.330;2023-03-22T20:27:05;99130.16;;;11.64;100.00
48796;BME280;34607;48.520;-1.330;2023-03-22T20:29:33;99137.91;;;11.69;100.00
48796;BME280;34607;48.520;-1.330;2023-03-22T20:32:00;99128.41;;;11.63;100.00
48796;BME280;34607;48.520;-1.330;2023-03-22T20:34:27;99140.44;;;11.72;100.00
48796;BME280;34607;48.520;-1.330;2023-03-22T20:36:56;99132.66;;;11.72;100.00
48796;BME280;34607;48.520;-1.330;2023-03-22T20:39:23;99150.84;;;11.70;100.00
48796;BME280;34607;48.520;-1.330;2023-03-22T20:41:53;99153.41;;;11.72;100.00
48796;BME280;34607;48.520;-1.330;2023-03-22T20:44:21;99152.53;;;11.77;100.00
48796;BME280;34607;48.520;-1.330;2023-03-22T20:46:49;99142.09;;;11.80;100.00
48796;BME280;34607;48.520;-1.330;2023-03-22T20:49:16;99111.19;;;11.59;100.00
48796;BME280;34607;48.520;-1.330;2023-03-22T20:51:43;99141.28;;;11.78;100.00
48796;BME280;34607;48.520;-1.330;2023-03-22T20:54:11;99143.84;;;11.81;100.00
48796;BME280;34607;48.520;-1.330;2023-03-22T20:56:38;99130.06;;;11.73;100.00
48796;BME280;34607;48.520;-1.330;2023-03-22T20:59:06;99122.25;;;11.78;100.00
48796;BME280;34607;48.520;-1.330;2023-03-22T21:01:33;99117.09;;;11.75;100.00